Terminal Aerodrome Forecast
Issued by NWS Corpus Christi, TX

Home | Current Version | Previous Version | Text Only | Print | Product List | Glossary On
Versions: 1 2 3 4 5 6 7 8 9 10 11 12 13 14 15 16 17
501
FTUS44 KCRP 162338
TAFVCT
TAF
KVCT 162338Z 1700/1724 36015KT P6SM SCT025 OVC060
      TEMPO 1700/1703 5SM -FZRAPL BKN025 OVC060
     FM170300 36012KT P6SM OVC060
     FM170900 36010KT P6SM BKN070
     FM171400 01008KT P6SM SCT100 SCT250=

USA.gov is the U.S. government's official web portal to all federal, state and local government web resources and services.